Latest Weather Observations for Tewantin

IDQ60801

Issued at 6:32 pm EST Thursday 26 May 2016 (issued every 30 minutes, with the page automatically refreshed every 10 minutes)

About weather observations | Map of weather stations | Latest weather observations for QLD | Other Formats
Station Details ID: 040908 Name: TEWANTIN RSL PARK Lat: -26.39 Lon: 153.04 Height: 6.4 m
Data from the previous 72 hours. | See also: Recent months at Tewantin
Date/Time
EST
Temp
°C
App
Temp
°C
Dew
Point
Rel
Hum
%
Delta-T
°C
Wind Press
QNH
hPa
Press
MSL
hPa
Rain
since 9 am
mm
Dir
 
Spd
km/h
Gust
km/h
Spd
kts
Gust
kts
26/06:30pm 22.4 22.3 19.6 84 1.8 N 19 28 10 15 1010.2 1010.2 0.0
26/06:00pm 22.7 22.4 19.5 82 2.0 N 20 28 11 15 1009.8 1009.8 0.0
26/05:30pm 23.0 22.6 19.4 80 2.3 N 20 28 11 15 1009.4 1009.4 0.0
26/05:00pm 23.6 23.2 18.9 75 3.0 N 19 28 10 15 1009.1 1009.1 0.0
26/04:30pm 24.5 24.2 18.2 68 4.0 N 17 26 9 14 1009.1 1009.1 0.0
26/04:00pm 25.3 24.7 17.5 62 4.9 N 17 26 9 14 1009.0 1009.0 0.0
26/03:30pm 26.4 26.0 16.3 53 6.2 N 13 19 7 10 1009.2 1009.2 0.0
26/03:00pm 26.5 25.3 16.1 52 6.4 N 17 24 9 13 1009.6 1009.6 0.0
26/02:30pm 26.7 24.9 15.4 50 6.9 N 19 26 10 14 1009.6 1009.6 0.0
26/02:00pm 27.5 26.0 14.2 44 8.0 NW 15 26 8 14 1010.0 1010.0 0.0
26/01:30pm 27.0 24.8 13.4 43 8.0 NNW 17 28 9 15 1010.4 1010.4 0.0
26/01:00pm 26.6 24.5 13.7 45 7.6 NNW 17 24 9 13 1011.2 1011.2 0.0
26/12:30pm 26.2 24.7 15.3 51 6.6 NNW 17 28 9 15 1012.0 1012.0 0.0
26/12:00pm 25.3 23.5 14.4 50 6.5 NNW 17 28 9 15 1012.6 1012.6 0.0
26/11:30am 25.4 24.0 14.5 51 6.5 NNW 15 22 8 12 1013.4 1013.4 0.0
26/11:00am 24.2 23.4 15.1 56 5.4 NNW 13 22 7 12 1014.3 1014.3 0.0
26/10:30am 22.3 21.2 14.2 60 4.7 NNW 13 20 7 11 1015.0 1015.0 0.0
26/10:00am 20.8 19.7 14.2 66 3.8 N 13 17 7 9 1015.7 1015.7 0.0
26/09:30am 19.6 18.3 12.6 64 3.9 N 11 17 6 9 1016.1 1016.1 0.0
26/09:00am 19.1 18.3 12.8 67 3.5 NNW 9 13 5 7 1016.4 1016.4 0.0
26/08:30am 17.4 16.2 11.7 69 3.1 NW 9 15 5 8 1016.3 1016.3 0.0
26/08:00am 16.0 14.3 11.2 73 2.6 WNW 11 17 6 9 1016.4 1016.4 0.0
26/07:30am 13.8 12.9 11.3 85 1.3 NW 7 11 4 6 1016.3 1016.3 0.0
26/07:00am 11.2 10.4 9.6 90 0.8 WNW 4 11 2 6 1016.3 1016.3 0.0
26/06:30am 10.6 9.1 9.2 91 0.7 NW 7 9 4 5 1016.1 1016.1 0.0
26/06:00am 10.3 9.7 9.1 92 0.6 NW 2 7 1 4 1015.9 1015.9 0.0
26/05:30am 11.0 10.1 9.4 90 0.8 NNW 4 7 2 4 1015.8 1015.8 0.0
26/05:00am 11.0 11.0 9.8 92 0.6 CALM 0 7 0 4 1015.9 1015.9 0.0
26/04:30am 10.7 10.6 9.3 91 0.7 CALM 0 0 0 0 1016.0 1016.0 0.0
26/04:00am 10.6 10.4 8.9 89 0.8 CALM 0 0 0 0 1016.1 1016.1 0.0
26/03:30am 10.9 10.9 9.7 92 0.6 CALM 0 0 0 0 1016.1 1016.1 0.0
26/03:00am 10.6 10.4 9.2 91 0.7 CALM 0 0 0 0 1016.3 1016.3 0.0
26/02:30am 10.4 10.2 9.2 92 0.6 CALM 0 0 0 0 1016.4 1016.4 0.0
26/02:00am 11.0 11.1 10.2 95 0.4 CALM 0 0 0 0 1016.6 1016.6 0.0
26/01:30am 11.0 11.1 10.1 94 0.5 CALM 0 0 0 0 1016.8 1016.8 0.0
26/01:00am 11.1 11.2 10.2 94 0.5 CALM 0 0 0 0 1017.0 1017.0 0.0
26/12:30am 11.1 11.2 10.2 94 0.5 CALM 0 0 0 0 1017.0 1017.0 0.0
26/12:00am 11.2 11.4 10.4 95 0.4 CALM 0 0 0 0 1017.2 1017.2 0.0
 
Date/Time
EST
Temp
°C
App
Temp
°C
Dew
Point
Rel
Hum
%
Delta-T
°C
Wind Press
QNH
hPa
Press
MSL
hPa
Rain
since 9 am
mm
Dir
 
Spd
km/h
Gust
km/h
Spd
kts
Gust
kts
25/11:30pm 11.0 11.1 10.2 95 0.4 CALM 0 0 0 0 1017.5 1017.5 0.0
25/11:00pm 11.2 11.3 10.1 93 0.6 CALM 0 0 0 0 1017.8 1017.8 0.0
25/10:30pm 11.7 11.9 10.6 93 0.6 CALM 0 0 0 0 1017.9 1017.9 0.0
25/10:00pm 12.0 12.2 10.6 91 0.7 CALM 0 0 0 0 1017.9 1017.9 0.0
25/09:30pm 12.4 12.9 11.5 94 0.5 CALM 0 0 0 0 1017.7 1017.7 0.0
25/09:00pm 12.6 12.9 11.0 90 0.8 CALM 0 0 0 0 1017.7 1017.7 0.0
25/08:30pm 13.1 13.6 11.5 90 0.8 CALM 0 0 0 0 1017.6 1017.6 0.0
25/08:00pm 13.5 13.9 11.4 87 1.1 CALM 0 0 0 0 1017.6 1017.6 0.0
25/07:30pm 14.0 14.3 10.8 81 1.7 CALM 0 0 0 0 1017.5 1017.5 0.0
25/07:00pm 14.8 15.2 11.4 80 1.8 CALM 0 7 0 4 1017.2 1017.2 0.0
25/06:30pm 15.8 16.2 11.2 74 2.5 CALM 0 4 0 2 1016.8 1016.8 0.0
25/06:00pm 16.7 15.9 11.8 73 2.7 SSW 7 9 4 5 1016.3 1016.3 0.0
25/05:30pm 18.1 18.5 11.2 64 3.7 CALM 0 0 0 0 1016.3 1016.3 0.0
25/05:00pm 19.2 19.4 10.5 57 4.7 CALM 0 0 0 0 1016.0 1016.0 0.0
25/04:30pm 20.2 18.8 9.7 51 5.6 ESE 7 9 4 5 1015.7 1015.7 0.0
25/04:00pm 20.8 19.1 10.0 50 5.8 E 9 11 5 6 1015.7 1015.7 0.0
25/03:30pm 21.3 19.2 8.2 43 6.8 SE 9 13 5 7 1015.6 1015.6 0.0
25/03:00pm 21.7 19.1 6.0 36 7.9 SE 9 13 5 7 1015.6 1015.6 0.0
25/02:30pm 22.1 19.4 5.5 34 8.3 SE 9 15 5 8 1015.6 1015.6 0.0
25/02:00pm 22.4 19.5 4.5 31 8.8 SE 9 13 5 7 1015.6 1015.6 0.0
25/01:30pm 22.8 19.3 1.2 24 10.0 SE 9 13 5 7 1015.9 1015.9 0.0
25/01:00pm 22.5 19.5 4.1 30 9.0 ESE 9 15 5 8 1016.4 1016.4 0.0
25/12:30pm 22.5 18.6 0.9 24 9.9 ESE 11 19 6 10 1016.8 1016.8 0.0
25/12:00pm 23.0 19.4 0.8 23 10.2 SE 9 17 5 9 1017.4 1017.4 0.0
25/11:30am 22.8 20.3 3.9 29 9.2 SSE 6 11 3 6 1017.7 1017.7 0.0
25/11:00am 21.8 19.4 5.3 34 8.2 SE 7 13 4 7 1018.0 1018.0 0.0
25/10:30am 21.6 18.9 3.8 31 8.6 ESE 7 11 4 6 1018.3 1018.3 0.0
25/10:00am 20.7 18.6 5.9 38 7.4 SSW 6 9 3 5 1018.3 1018.3 0.0
25/09:30am 20.0 19.2 6.4 41 6.8 CALM 0 7 0 4 1018.2 1018.2 0.0
25/09:00am 19.3 18.8 8.0 48 5.8 CALM 0 6 0 3 1018.2 1018.2 0.0
25/08:30am 17.4 16.5 6.0 47 5.6 CALM 0 0 0 0 1017.9 1017.9 0.0
25/08:00am 15.3 13.5 7.3 59 3.9 SW 6 9 3 5 1017.6 1017.6 0.0
25/07:30am 13.3 12.6 7.1 66 3.0 CALM 0 4 0 2 1017.5 1017.5 0.0
25/07:00am 10.9 10.1 6.6 75 2.0 CALM 0 7 0 4 1017.2 1017.2 0.0
25/06:30am 10.2 8.1 5.6 73 2.1 NNE 6 7 3 4 1017.2 1017.2 0.0
25/06:00am 10.9 9.7 4.8 66 2.8 CALM 0 7 0 4 1017.3 1017.3 0.0
25/05:30am 10.9 10.2 8.5 85 1.2 NNW 2 6 1 3 1017.0 1017.0 0.0
25/05:00am 11.5 10.7 8.0 79 1.7 NW 2 6 1 3 1016.7 1016.7 0.0
25/04:30am 12.0 11.4 7.3 73 2.3 CALM 0 0 0 0 1016.6 1016.6 0.0
25/04:00am 12.5 11.7 8.0 74 2.2 SSW 2 7 1 4 1016.5 1016.5 0.0
25/03:30am 12.8 11.7 8.5 75 2.1 SW 4 7 2 4 1016.9 1016.9 0.0
25/03:00am 13.5 13.5 11.2 86 1.2 WSW 2 6 1 3 1016.8 1016.8 0.0
25/02:30am 13.5 14.0 11.7 89 1.0 CALM 0 0 0 0 1016.8 1016.8 0.0
25/02:00am 14.9 15.6 13.4 91 0.8 WNW 2 7 1 4 1016.9 1016.9 0.0
25/01:30am 14.7 15.3 13.1 90 0.9 WSW 2 7 1 4 1017.1 1017.1 0.0
25/01:00am 14.8 15.0 14.3 97 0.3 W 6 9 3 5 1017.4 1017.4 0.0
25/12:30am 15.3 17.0 15.1 99 0.1 CALM 0 6 0 3 1017.3 1017.3 0.0
25/12:00am 15.5 17.2 15.3 99 0.1 CALM 0 4 0 2 1017.5 1017.5 0.0
 
Date/Time
EST
Temp
°C
App
Temp
°C
Dew
Point
Rel
Hum
%
Delta-T
°C
Wind Press
QNH
hPa
Press
MSL
hPa
Rain
since 9 am
mm
Dir
 
Spd
km/h
Gust
km/h
Spd
kts
Gust
kts
24/11:30pm 15.1 16.7 14.8 98 0.2 CALM 0 4 0 2 1017.7 1017.7 0.0
24/11:00pm 15.5 17.2 15.3 99 0.1 CALM 0 0 0 0 1017.9 1017.9 0.0
24/10:30pm 15.8 17.6 15.5 98 0.2 CALM 0 0 0 0 1018.0 1018.0 0.0
24/10:00pm 16.1 17.9 15.5 96 0.3 CALM 0 0 0 0 1018.2 1018.2 0.0
24/09:30pm 16.5 18.5 15.9 96 0.4 CALM 0 0 0 0 1018.1 1018.1 0.0
24/09:00pm 16.8 18.6 15.5 92 0.8 CALM 0 0 0 0 1018.1 1018.1 0.0
24/08:30pm 17.3 19.1 15.6 90 1.0 CALM 0 0 0 0 1017.8 1017.8 0.0
24/08:00pm 17.9 19.3 15.5 86 1.4 SW 2 6 1 3 1017.7 1017.7 0.0
24/07:30pm 18.5 20.0 15.6 83 1.7 SW 2 6 1 3 1017.5 1017.5 0.0
24/07:00pm 19.1 20.2 15.6 80 2.1 SW 4 6 2 3 1017.3 1017.3 0.0
24/06:30pm 19.6 21.2 15.9 79 2.2 SW 2 6 1 3 1016.8 1016.8 0.0
24/06:00pm 20.3 21.9 15.9 76 2.6 SSW 2 6 1 3 1016.5 1016.5 0.0
24/05:30pm 21.4 21.9 15.0 67 3.8 SSE 6 9 3 5 1016.1 1016.1 0.0
24/05:00pm 21.9 22.2 15.0 65 4.1 SSE 7 13 4 7 1015.8 1015.8 0.0
24/04:30pm 22.7 22.4 14.3 59 4.9 SE 9 19 5 10 1015.5 1015.5 0.0
24/04:00pm 23.1 22.7 15.2 61 4.7 SE 11 19 6 10 1015.3 1015.3 0.0
24/03:30pm 23.3 22.1 15.1 60 4.9 SE 15 22 8 12 1015.0 1015.0 0.0
24/03:00pm 23.6 23.3 16.4 64 4.4 SE 13 22 7 12 1014.8 1014.8 0.0
24/02:30pm 23.4 22.3 16.4 64 4.3 ESE 17 28 9 15 1015.0 1015.0 0.0
24/02:00pm 23.8 22.9 15.8 61 4.8 SE 15 24 8 13 1014.9 1014.9 0.0
24/01:30pm 24.4 23.6 16.1 60 5.1 SE 15 24 8 13 1015.0 1015.0 0.0
24/01:00pm 24.3 23.8 15.8 59 5.1 ESE 13 22 7 12 1015.2 1015.2 0.0
24/12:30pm 24.6 23.8 15.2 55 5.6 SE 13 20 7 11 1015.7 1015.7 0.0
24/12:00pm 24.8 23.9 14.9 54 5.9 SE 13 20 7 11 1015.9 1015.9 0.0
24/11:30am 25.2 23.9 15.8 56 5.7 SE 17 28 9 15 1016.4 1016.4 0.0
24/11:00am 25.6 25.0 14.7 51 6.5 SE 11 20 6 11 1016.8 1016.8 0.0
24/10:30am 26.9 25.3 12.9 42 8.2 S 13 19 7 10 1017.0 1017.0 0.0
24/10:00am 27.2 26.6 13.5 42 8.1 SSW 9 13 5 7 1017.2 1017.2 0.0
24/09:30am 26.0 26.1 14.5 49 6.9 SW 7 15 4 8 1017.4 1017.4 0.0
24/09:00am 24.4 25.0 15.3 57 5.5 SW 6 11 3 6 1017.4 1017.4 0.0
24/08:30am 22.2 23.7 15.8 67 3.8 WSW 2 9 1 5 1017.3 1017.3 0.0
24/08:00am 20.5 21.0 15.1 71 3.2 NW 6 9 3 5 1017.1 1017.1 0.0
24/07:30am 19.1 20.8 16.1 83 1.8 NW 2 9 1 5 1016.8 1016.8 0.0
24/07:00am 17.2 18.3 15.5 90 1.0 NNW 4 6 2 3 1016.5 1016.5 0.0
24/06:30am 17.1 18.3 14.9 87 1.3 N 2 7 1 4 1016.1 1016.1 0.0
24/06:00am 17.3 17.7 15.3 88 1.2 NNW 7 9 4 5 1015.9 1015.9 0.0
24/05:30am 17.4 18.0 15.2 87 1.3 NNW 6 9 3 5 1016.0 1016.0 0.0
24/05:00am 17.8 18.4 15.2 85 1.5 NNW 6 11 3 6 1015.9 1015.9 0.0
24/04:30am 17.9 18.3 14.8 82 1.8 WNW 6 9 3 5 1016.0 1016.0 0.0
24/04:00am 17.8 17.7 14.9 83 1.7 NW 9 13 5 7 1016.0 1016.0 0.0
24/03:30am 17.9 18.2 15.0 83 1.7 WNW 7 13 4 7 1016.3 1016.3 0.0
24/03:00am 17.9 18.3 15.3 85 1.5 NW 7 11 4 6 1016.3 1016.3 0.0
24/02:30am 18.0 18.6 15.4 85 1.5 NW 6 7 3 4 1016.4 1016.4 0.0
24/02:00am 17.9 18.4 15.5 86 1.4 NW 7 11 4 6 1016.6 1016.6 0.0
24/01:30am 17.8 18.7 16.0 89 1.1 WNW 6 7 3 4 1016.9 1016.9 0.0
24/01:00am 18.1 19.0 16.1 88 1.2 WNW 6 9 3 5 1017.1 1017.1 0.0
24/12:30am 17.8 18.8 16.3 91 0.9 WNW 6 9 3 5 1017.4 1017.4 0.0
24/12:00am 17.9 19.0 16.6 92 0.8 N 6 7 3 4 1017.4 1017.4 0.0
 
Date/Time
EST
Temp
°C
App
Temp
°C
Dew
Point
Rel
Hum
%
Delta-T
°C
Wind Press
QNH
hPa
Press
MSL
hPa
Rain
since 9 am
mm
Dir
 
Spd
km/h
Gust
km/h
Spd
kts
Gust
kts
23/11:30pm 18.0 19.0 16.3 90 1.0 NNW 6 9 3 5 1017.3 1017.3 0.0
23/11:00pm 18.0 19.0 16.3 90 1.0 NNW 6 9 3 5 1017.5 1017.5 0.0
23/10:30pm 18.0 19.1 16.5 91 0.9 NNW 6 7 3 4 1017.7 1017.7 0.0
23/10:00pm 18.1 19.0 16.1 88 1.2 NW 6 9 3 5 1017.9 1017.9 0.0
23/09:30pm 18.6 20.2 16.8 89 1.1 NNW 4 7 2 4 1018.0 1018.0 0.0
23/09:00pm 18.6 19.7 16.6 88 1.2 NNW 6 7 3 4 1018.0 1018.0 0.0
23/08:30pm 19.0 20.3 17.0 88 1.2 N 6 7 3 4 1018.1 1018.1 0.0
23/08:00pm 19.2 19.9 16.2 83 1.8 NW 7 9 4 5 1017.9 1017.9 0.0
23/07:30pm 19.3 20.3 16.3 83 1.8 NW 6 9 3 5 1017.8 1017.8 0.0
23/07:00pm 19.6 20.0 16.3 81 2.0 NW 9 11 5 6 1017.6 1017.6 0.0

Other Formats:

Comma delimited format used in spreadsheet applications
http://www.bom.gov.au/fwo/IDQ60801/IDQ60801.94570.axf

JavaScript Object Notation format (JSON) in row-major order
http://www.bom.gov.au/fwo/IDQ60801/IDQ60801.94570.json